Kingsford, Michigan
Current Conditions -  °F | °C
As of 4:19 PM on Thursday 23 Oct 2014 (Local Time) from KIMT Reporting Station
Light Rain Light Rain  
Wind Chill: 41°   Ceiling: 600
Heat Index: 45°   Visibility: 3mi
Dew Point: 43°   Wind: 8mph
Humidity: 93%   Direction: 160°SSE
Pressure: 30.01"   Gusts: NA
Location:  45.79°N, 88.07°W
Report Text: KIMT 232119Z AUTO 16007KT 3SM -RA BR BKN006 OVC020 07/06 A3001 RMK AO2 P0000 T00720061
Loading
Personal Weather Stations






























Interactive Weather Map
Tropical Storm Tracking
New forecast layout! Learn more

10-Day Weather Forecast

Advertisements
Track Severe Weather on mobile